Time;durP1;ratioP1;P1;durP2;ratioP2;P2;SDS_P1;SDS_P2;PMS_P1;PMS_P2;Temp;Humidity;BMP_temperature;BMP_pressure;BME280_temperature;BME280_humidity;BME280_pressure;Samples;Min_cycle;Max_cycle;Signal;HPM_P1;HPM_P2
2023/10/20 00:02:40;;;;;;;87.00;55.20;;;;;;;8.96;90.66;96617.10;436252;1252;99317;-41
2023/10/20 00:12:44;;;;;;;82.00;52.90;;;;;;;9.02;90.62;96608.18;436280;1251;111542;-40
2023/10/20 00:22:48;;;;;;;81.00;51.20;;;;;;;9.07;90.72;96617.65;436298;1248;110485;-41
2023/10/20 00:32:51;;;;;;;79.10;51.20;;;;;;;9.24;91.17;96610.46;436346;1252;99300;-42
2023/10/20 00:42:55;;;;;;;93.30;57.10;;;;;;;9.40;91.42;96579.27;436011;1254;441980;-42
2023/10/20 00:52:57;;;;;;;86.50;55.70;;;;;;;9.29;91.06;96582.64;436243;1248;99232;-41
2023/10/20 01:03:00;;;;;;;76.80;50.60;;;;;;;9.25;91.10;96567.84;436139;1253;110900;-42
2023/10/20 01:13:04;;;;;;;77.90;50.90;;;;;;;9.34;91.26;96564.64;436724;1253;107680;-42
2023/10/20 01:23:08;;;;;;;71.50;49.70;;;;;;;9.46;91.60;96562.30;435281;1256;99320;-42
2023/10/20 01:33:11;;;;;;;71.40;47.80;;;;;;;9.61;91.41;96543.85;435142;1251;108106;-42
2023/10/20 01:43:14;;;;;;;73.60;48.60;;;;;;;9.56;91.27;96533.07;435283;1255;99220;-42
2023/10/20 01:53:17;;;;;;;81.50;54.10;;;;;;;9.66;91.40;96531.25;435233;1250;113025;-40
2023/10/20 02:03:21;;;;;;;85.40;55.60;;;;;;;9.57;91.43;96501.46;435433;1252;108697;-41
2023/10/20 02:13:25;;;;;;;80.20;48.80;;;;;;;9.50;91.24;96490.38;435230;1255;98751;-42
2023/10/20 02:23:34;;;;;;;69.10;46.50;;;;;;;9.46;91.20;96483.59;435161;1254;108449;-41
2023/10/20 02:33:41;;;;;;;72.50;46.20;;;;;;;9.49;91.42;96500.92;435430;1254;99420;-40
2023/10/20 02:43:45;;;;;;;85.40;52.10;;;;;;;9.59;91.61;96512.89;435230;1253;112140;-42
2023/10/20 02:54:01;;;;;;;93.40;59.60;;;;;;;9.51;91.56;96501.34;435243;1256;108405;-42
2023/10/20 03:14:11;;;;;;;85.40;55.90;;;;;;;9.29;91.44;96461.98;435208;1251;106749;-41
2023/10/20 03:24:14;;;;;;;82.00;52.50;;;;;;;9.37;91.79;96453.69;435336;1250;97993;-41
2023/10/20 03:34:17;;;;;;;72.20;48.40;;;;;;;9.41;91.78;96447.33;435288;1253;110995;-41
2023/10/20 03:44:24;;;;;;;63.40;44.50;;;;;;;9.44;91.83;96451.84;435168;1250;108083;-41
2023/10/20 03:54:30;;;;;;;63.60;43.10;;;;;;;9.47;91.88;96456.83;435172;1250;99222;-42
2023/10/20 04:04:35;;;;;;;78.10;51.20;;;;;;;9.52;92.05;96463.66;435240;1255;108021;-42
2023/10/20 04:14:38;;;;;;;72.50;44.80;;;;;;;9.53;92.03;96446.34;435315;1251;99558;-42
2023/10/20 04:24:42;;;;;;;63.50;43.80;;;;;;;9.51;92.04;96441.40;435221;1250;111939;-41
2023/10/20 05:26:35;;;;;;;68.10;47.70;;;;;;;9.79;92.53;96435.88;435170;1255;107844;-41
2023/10/20 05:36:38;;;;;;;61.50;39.90;;;;;;;9.71;92.42;96438.92;435360;1256;99230;-41
2023/10/20 05:46:45;;;;;;;65.10;39.70;;;;;;;9.70;92.46;96451.70;435295;1250;107735;-41
2023/10/20 05:56:49;;;;;;;49.40;37.70;;;;;;;9.73;92.54;96443.65;435267;1256;99231;-40
2023/10/20 06:06:52;;;;;;;50.40;32.80;;;;;;;9.72;92.59;96422.70;435364;1253;110987;-42
2023/10/20 06:16:56;;;;;;;44.40;31.90;;;;;;;9.70;92.93;96413.42;435167;1250;108145;-41
2023/10/20 06:57:20;;;;;;;43.80;30.20;;;;;;;10.09;93.49;96422.45;435376;1255;112253;-41
2023/10/20 07:07:23;;;;;;;;;;;;;;;10.12;93.73;96397.85;435273;1253;108777;-40
2023/10/20 07:17:27;;;;;;;42.50;28.30;;;;;;;10.11;93.69;96385.88;435238;1256;99608;-41
2023/10/20 07:27:31;;;;;;;39.80;29.20;;;;;;;10.13;93.91;96390.98;435301;1251;109330;-41
2023/10/20 07:37:34;;;;;;;47.00;31.00;;;;;;;10.22;93.93;96385.48;435344;1263;98845;-39
2023/10/20 07:47:38;;;;;;;41.10;28.90;;;;;;;10.29;94.24;96384.13;435480;1257;112116;-42
2023/10/20 08:07:48;;;;;;;41.60;29.10;;;;;;;10.53;94.54;96367.98;435212;1255;98018;-41
2023/10/20 08:17:52;;;;;;;41.30;28.20;;;;;;;10.70;95.00;96342.61;435306;1254;108420;-40
2023/10/20 08:38:05;;;;;;;49.00;30.60;;;;;;;11.12;95.13;96348.17;435236;1263;111295;-42
2023/10/20 08:48:08;;;;;;;42.80;30.50;;;;;;;11.38;95.36;96340.36;435358;1251;108658;-40
2023/10/20 08:58:12;;;;;;;41.50;29.30;;;;;;;11.47;95.31;96319.34;435440;1254;97983;-41
2023/10/20 09:18:17;;;;;;;51.40;34.20;;;;;;;11.77;95.33;96289.59;435389;1263;98037;-40
2023/10/20 09:58:37;;;;;;;40.70;26.20;;;;;;;12.17;95.66;96248.98;435366;1254;108068;-41
2023/10/20 10:08:41;;;;;;;39.40;26.80;;;;;;;12.22;95.55;96248.02;435332;1254;99319;-42
2023/10/20 10:49:05;;;;;;;33.40;24.30;;;;;;;12.10;95.86;96213.80;435116;1251;107266;-41
2023/10/20 10:59:09;;;;;;;35.70;24.80;;;;;;;12.17;95.90;96233.55;435160;1254;98800;-41
2023/10/20 11:19:22;;;;;;;29.90;23.40;;;;;;;12.08;95.96;96249.73;435225;1251;106644;-41
2023/10/20 11:29:26;;;;;;;32.20;23.90;;;;;;;12.13;96.03;96232.80;435181;1263;99253;-41
2023/10/20 11:39:29;;;;;;;31.80;24.10;;;;;;;12.30;96.02;96238.19;435152;1254;107840;-42
2023/10/20 11:49:33;;;;;;;40.30;27.30;;;;;;;12.44;96.21;96225.23;435208;1250;99255;-41
2023/10/20 11:59:40;;;;;;;33.80;24.80;;;;;;;12.47;96.27;96214.75;435194;1251;111852;-41
2023/10/20 12:19:48;;;;;;;33.80;24.60;;;;;;;12.89;96.65;96181.94;435314;1254;97911;-40
2023/10/20 12:29:53;;;;;;;28.90;23.50;;;;;;;13.07;96.79;96176.89;435127;1250;106931;-41
2023/10/20 12:50:00;;;;;;;28.80;21.40;;;;;;;13.05;97.12;96162.66;435263;1254;111003;-40
2023/10/20 13:00:04;;;;;;;31.60;22.00;;;;;;;13.03;97.21;96159.60;435256;1254;107260;-41
2023/10/20 13:10:09;;;;;;;29.70;23.20;;;;;;;13.02;97.26;96154.36;435364;1254;99241;-41
2023/10/20 13:20:17;;;;;;;31.30;25.00;;;;;;;13.00;97.95;96139.17;435271;1254;107961;-40
2023/10/20 13:30:21;;;;;;;32.30;26.10;;;;;;;13.03;98.13;96136.99;435192;1254;98015;-41
2023/10/20 13:40:25;;;;;;;32.80;25.90;;;;;;;13.04;98.23;96130.48;435237;1255;111708;-40
2023/10/20 13:50:29;;;;;;;38.30;28.10;;;;;;;13.05;98.47;96130.90;435282;1253;108789;-41
2023/10/20 14:00:37;;;;;;;36.20;27.50;;;;;;;13.07;98.42;96131.02;435301;1254;99237;-41
2023/10/20 14:10:42;;;;;;;38.90;30.40;;;;;;;13.10;99.04;96130.59;435263;1250;108555;-41
2023/10/20 14:20:45;;;;;;;44.20;31.80;;;;;;;13.13;99.00;96120.20;435226;1254;99519;-41
2023/10/20 14:30:52;;;;;;;40.30;29.70;;;;;;;13.14;98.99;96124.83;435157;1250;112135;-40
2023/10/20 14:41:02;;;;;;;44.80;31.80;;;;;;;13.20;99.02;96130.86;435315;1251;107539;-41
2023/10/20 14:51:30;;;;;;;39.10;30.10;;;;;;;13.29;99.23;96125.54;435375;1251;99893;-41
2023/10/20 15:01:35;;;;;;;44.90;29.90;;;;;;;13.39;99.21;96115.25;435118;1254;107648;-41
2023/10/20 15:11:38;;;;;;;46.80;34.80;;;;;;;13.40;99.23;96114.16;435048;1254;99855;-40
2023/10/20 15:21:42;;;;;;;44.40;31.90;;;;;;;13.41;99.43;96121.63;435094;1254;112101;-42
2023/10/20 15:31:46;;;;;;;41.90;30.90;;;;;;;13.36;99.44;96124.69;435261;1253;107340;-40
2023/10/20 15:42:15;;;;;;;43.40;32.10;;;;;;;13.32;99.66;96129.48;435459;1249;99944;-40
2023/10/20 15:52:18;;;;;;;44.70;32.80;;;;;;;13.30;99.63;96136.38;435051;1250;108411;-41
2023/10/20 16:02:22;;;;;;;50.40;32.50;;;;;;;13.28;99.77;96142.25;435244;1249;99347;-41
2023/10/20 16:12:25;;;;;;;43.80;32.60;;;;;;;13.23;99.80;96142.77;435339;1253;112289;-41
2023/10/20 16:22:28;;;;;;;48.20;34.10;;;;;;;13.24;99.83;96137.81;435299;1254;108621;-41
2023/10/20 16:42:35;;;;;;;55.00;39.40;;;;;;;13.29;99.98;96144.18;435187;1253;109379;-40
2023/10/20 16:52:39;;;;;;;62.10;40.00;;;;;;;13.33;100.00;96147.78;435223;1255;99283;-41
2023/10/20 17:22:49;;;;;;;54.40;36.90;;;;;;;13.44;100.00;96123.56;435201;1254;99861;-41
2023/10/20 17:32:53;;;;;;;60.20;40.20;;;;;;;13.46;100.00;96135.66;435164;1250;108453;-41
2023/10/20 17:42:57;;;;;;;47.90;35.00;;;;;;;13.47;100.00;96136.63;435296;1252;99218;-41
2023/10/20 17:53:01;;;;;;;51.80;38.80;;;;;;;13.48;100.00;96132.45;435136;1254;111800;-41
2023/10/20 18:03:04;;;;;;;73.10;44.20;;;;;;;13.52;100.00;96135.51;435236;1254;108384;-41
2023/10/20 18:13:07;;;;;;;67.40;42.80;;;;;;;13.51;100.00;96136.71;435319;1250;98865;-41
2023/10/20 18:23:10;;;;;;;60.50;40.30;;;;;;;13.45;100.00;96138.50;435171;1254;108544;-40
2023/10/20 18:33:16;;;;;;;52.40;37.40;;;;;;;13.45;100.00;96134.47;435336;1250;99253;-40
2023/10/20 18:43:23;;;;;;;52.70;38.10;;;;;;;13.41;100.00;96146.21;435224;1249;111212;-40
2023/10/20 18:53:27;;;;;;;55.40;39.30;;;;;;;13.43;100.00;96153.55;435196;1250;107542;-41
2023/10/20 19:13:34;;;;;;;46.10;34.60;;;;;;;13.37;100.00;96147.88;435262;1250;108530;-41
2023/10/20 19:33:40;;;;;;;52.80;37.40;;;;;;;13.40;100.00;96161.69;435360;1253;113664;-41
2023/10/20 19:43:43;;;;;;;53.30;37.30;;;;;;;13.36;100.00;96166.90;435094;1250;107929;-41
2023/10/20 19:53:48;;;;;;;57.70;37.80;;;;;;;13.31;100.00;96163.86;435280;1254;99357;-40
2023/10/20 20:13:53;;;;;;;55.60;39.50;;;;;;;13.15;100.00;96147.05;435268;1254;99237;-41
2023/10/20 20:23:56;;;;;;;52.70;37.40;;;;;;;13.18;100.00;96149.48;435229;1254;110856;-40
2023/10/20 20:44:06;;;;;;;45.20;34.40;;;;;;;13.29;100.00;96170.54;435382;1250;98015;-41
2023/10/20 20:54:10;;;;;;;55.90;38.60;;;;;;;13.22;100.00;96169.17;435129;1254;108631;-40
2023/10/20 21:04:14;;;;;;;65.30;44.20;;;;;;;13.08;100.00;96172.71;435211;1251;99227;-41
2023/10/20 21:14:17;;;;;;;66.00;44.00;;;;;;;12.96;100.00;96170.15;435188;1251;111058;-40
2023/10/20 21:24:21;;;;;;;61.90;42.30;;;;;;;12.93;100.00;96168.27;435158;1256;107651;-41
2023/10/20 21:34:24;;;;;;;66.00;42.90;;;;;;;12.98;100.00;96156.61;435319;1270;99291;-43
2023/10/20 21:54:32;;;;;;;57.80;38.70;;;;;;;13.13;100.00;96155.60;435186;1265;101661;-42
2023/10/20 22:04:35;;;;;;;49.90;35.80;;;;;;;13.16;100.00;96160.84;435518;1256;111313;-41
2023/10/20 22:24:43;;;;;;;55.40;37.30;;;;;;;13.02;99.73;96167.79;435464;1250;99298;-41
2023/10/20 22:34:46;;;;;;;50.40;36.20;;;;;;;12.93;99.66;96181.15;435232;1254;108795;-41
2023/10/20 22:44:49;;;;;;;49.40;35.90;;;;;;;12.83;99.63;96182.95;435280;1250;99246;-41
2023/10/20 22:54:53;;;;;;;59.00;37.00;;;;;;;12.85;99.86;96174.66;435198;1255;111989;-41
2023/10/20 23:04:56;;;;;;;64.00;37.00;;;;;;;12.92;99.97;96182.46;435298;1250;107162;-40
2023/10/20 23:14:59;;;;;;;57.60;34.50;;;;;;;13.01;100.00;96196.87;435154;1254;99199;-41
2023/10/20 23:25:04;;;;;;;52.60;33.50;;;;;;;13.12;100.00;96204.98;435319;1256;107977;-42
2023/10/20 23:35:09;;;;;;;54.10;32.50;;;;;;;13.26;100.00;96217.50;435248;1256;98989;-40
2023/10/20 23:45:12;;;;;;;56.70;33.60;;;;;;;13.37;100.00;96233.06;435171;1256;111561;-41
2023/10/20 23:55:15;;;;;;;52.10;29.80;;;;;;;13.43;100.00;96257.95;435364;1256;108212;-41
